Time;durP1;ratioP1;P1;durP2;ratioP2;P2;SDS_P1;SDS_P2;PMS_P1;PMS_P2;Temp;Humidity;BMP_temperature;BMP_pressure;BME280_temperature;BME280_humidity;BME280_pressure;Samples;Min_cycle;Max_cycle;Signal;HPM_P1;HPM_P2
2022/04/02 00:00:27;;;;;;;21.00;11.53;;;;;;;4.61;100.00;97770.42;1778912;80;21595;-69
2022/04/02 00:02:53;;;;;;;18.75;10.35;;;;;;;4.58;100.00;97769.75;1778719;80;21012;-69
2022/04/02 00:05:20;;;;;;;18.73;10.43;;;;;;;4.56;100.00;97774.19;1778937;80;21060;-67
2022/04/02 00:07:46;;;;;;;13.95;8.08;;;;;;;4.54;100.00;97772.12;1778883;80;21039;-68
2022/04/02 00:10:15;;;;;;;15.32;8.40;;;;;;;4.50;100.00;97769.28;1779004;80;21220;-68
2022/04/02 00:12:41;;;;;;;10.82;7.15;;;;;;;4.48;100.00;97774.55;1779050;80;21082;-69
2022/04/02 00:15:10;;;;;;;11.90;6.97;;;;;;;4.48;100.00;97773.72;1778997;80;22108;-68
2022/04/02 00:17:37;;;;;;;12.33;6.40;;;;;;;4.48;100.00;97771.11;1778949;80;21018;-67
2022/04/02 00:20:06;;;;;;;9.48;5.55;;;;;;;4.48;100.00;97770.64;1779703;80;21110;-69
2022/04/02 00:22:33;;;;;;;7.78;5.20;;;;;;;4.48;100.00;97760.22;1781602;80;21766;-69
2022/04/02 00:25:01;;;;;;;7.35;5.25;;;;;;;4.50;100.00;97767.50;1781595;80;21039;-68
2022/04/02 00:27:27;;;;;;;8.20;5.50;;;;;;;4.51;100.00;97764.43;1781454;80;21015;-69
2022/04/02 00:33:22;;;;;;;6.67;4.40;;;;;;;4.28;100.00;97765.14;1814457;79;24576;-69
2022/04/02 00:35:49;;;;;;;6.05;4.25;;;;;;;4.43;100.00;97757.48;1722868;83;21053;-68
2022/04/02 00:38:17;;;;;;;5.62;4.65;;;;;;;4.48;100.00;97753.70;1752895;81;21578;-68
2022/04/02 00:40:44;;;;;;;6.15;4.30;;;;;;;4.45;100.00;97759.55;1752756;81;21084;-69
2022/04/02 00:43:31;;;;;;;6.92;4.12;;;;;;;4.50;100.00;97764.06;1752949;81;21093;-69
2022/04/02 00:46:03;;;;;;;6.05;4.65;;;;;;;4.37;100.00;97774.23;1753097;81;21309;-69
2022/04/02 00:48:30;;;;;;;5.05;3.90;;;;;;;4.39;100.00;97790.22;1752944;81;21092;-68
2022/04/02 00:50:58;;;;;;;6.10;3.95;;;;;;;4.37;100.00;97818.54;1752786;81;21132;-68
2022/04/02 00:53:30;;;;;;;3.85;3.37;;;;;;;4.38;100.00;97821.08;1752822;81;21059;-68
2022/04/02 00:55:58;;;;;;;7.08;3.85;;;;;;;4.37;100.00;97826.36;1752409;81;21613;-69
2022/04/02 00:58:25;;;;;;;5.25;3.50;;;;;;;4.41;100.00;97836.56;1752830;81;21060;-68
2022/04/02 01:00:52;;;;;;;5.17;3.12;;;;;;;4.39;100.00;97830.61;1723162;81;21128;-68
2022/04/02 01:03:21;;;;;;;4.55;3.70;;;;;;;4.35;100.00;97823.84;1752953;81;21141;-67
2022/04/02 01:05:50;;;;;;;4.70;3.02;;;;;;;4.45;100.00;97823.40;1752710;81;21042;-69
2022/04/02 01:08:18;;;;;;;4.78;3.35;;;;;;;4.41;100.00;97835.25;1723648;81;21111;-68
2022/04/02 01:10:47;;;;;;;4.22;3.08;;;;;;;4.45;100.00;97831.22;1752872;81;21577;-68
2022/04/02 01:13:16;;;;;;;4.87;3.30;;;;;;;4.54;100.00;97847.70;1752872;81;21041;-68
2022/04/02 01:15:44;;;;;;;5.33;3.83;;;;;;;4.61;100.00;97839.97;1752801;81;21515;-70
2022/04/02 01:18:13;;;;;;;5.85;3.77;;;;;;;4.56;100.00;97823.72;1752839;81;21052;-68
2022/04/02 01:20:40;;;;;;;5.50;3.77;;;;;;;4.57;100.00;97831.44;1752896;81;21544;-69
2022/04/02 01:23:08;;;;;;;5.28;3.40;;;;;;;4.53;100.00;97822.55;1752644;81;21076;-69
2022/04/02 01:25:37;;;;;;;4.53;3.33;;;;;;;4.43;100.00;97833.89;1750320;81;21096;-68
2022/04/02 01:28:07;;;;;;;4.92;3.50;;;;;;;4.38;100.00;97824.99;1741773;81;21088;-68
2022/04/02 01:30:36;;;;;;;4.00;3.15;;;;;;;4.37;100.00;97836.34;1724212;82;21074;-68
2022/04/02 01:33:03;;;;;;;4.65;3.50;;;;;;;4.36;100.00;97845.53;1710749;83;21042;-69
2022/04/02 01:35:31;;;;;;;5.22;3.47;;;;;;;4.34;100.00;97859.93;1706290;84;21074;-69
2022/04/02 01:38:00;;;;;;;5.58;3.35;;;;;;;4.42;100.00;97871.31;1715777;81;21046;-68
2022/04/02 01:40:29;;;;;;;4.78;2.90;;;;;;;4.43;100.00;97864.33;1716488;83;21109;-71
2022/04/02 01:42:56;;;;;;;5.12;3.42;;;;;;;4.41;100.00;97849.59;1716204;83;20991;-68
2022/04/02 01:45:23;;;;;;;5.67;3.27;;;;;;;4.40;100.00;97842.70;1716037;83;21066;-68
2022/04/02 01:48:00;;;;;;;5.20;3.40;;;;;;;4.43;100.00;97833.05;1715982;82;21046;-68
2022/04/02 01:50:29;;;;;;;5.28;3.58;;;;;;;4.38;100.00;97834.11;1714254;82;21082;-68
2022/04/02 01:52:57;;;;;;;5.95;3.25;;;;;;;4.36;100.00;97819.01;1715930;83;21160;-69
2022/04/02 01:55:23;;;;;;;6.50;3.85;;;;;;;4.34;100.00;97805.67;1715987;82;21078;-69
2022/04/02 01:57:51;;;;;;;3.47;2.87;;;;;;;4.29;100.00;97812.41;1715729;82;21070;-68
2022/04/02 02:00:21;;;;;;;5.65;3.60;;;;;;;4.23;100.00;97803.58;1715275;82;21095;-69
2022/04/02 02:02:50;;;;;;;4.60;3.30;;;;;;;4.19;100.00;97807.27;1716098;82;21630;-69
2022/04/02 02:05:17;;;;;;;5.25;3.60;;;;;;;4.19;100.00;97811.18;1716010;82;21253;-69
2022/04/02 02:07:50;;;;;;;6.00;3.60;;;;;;;4.29;100.00;97777.23;1715735;83;21070;-69
2022/04/02 02:10:20;;;;;;;4.50;2.80;;;;;;;4.33;100.00;97783.16;1715585;82;21562;-70
2022/04/02 02:12:57;;;;;;;3.92;3.12;;;;;;;4.31;100.00;97777.17;1714483;82;21081;-68
2022/04/02 02:15:27;;;;;;;3.67;2.80;;;;;;;4.31;100.00;97782.38;1715680;82;21062;-69
2022/04/02 02:18:00;;;;;;;4.45;3.15;;;;;;;4.28;100.00;97788.59;1715852;82;21050;-68
2022/04/02 02:20:28;;;;;;;7.40;3.30;;;;;;;4.21;100.00;97789.81;1715919;83;21647;-68
2022/04/02 02:22:55;;;;;;;5.05;3.25;;;;;;;4.30;100.00;97785.89;1715745;82;21077;-69
2022/04/02 02:25:21;;;;;;;6.00;3.40;;;;;;;4.20;100.00;97790.71;1715822;82;21066;-69
2022/04/02 02:27:49;;;;;;;6.90;3.50;;;;;;;4.17;100.00;97784.36;1715802;83;21054;-69
2022/04/02 02:30:17;;;;;;;4.75;3.17;;;;;;;4.12;100.00;97785.05;1715880;83;21164;-69
2022/04/02 02:32:47;;;;;;;9.03;5.17;;;;;;;4.10;100.00;97782.50;1715702;82;21090;-69
2022/04/02 02:38:08;;;;;;;9.25;5.12;;;;;;;4.11;100.00;97770.31;1715750;83;21129;-69
2022/04/02 02:40:39;;;;;;;9.13;4.72;;;;;;;4.34;100.00;97763.52;1715392;83;21073;-68
2022/04/02 02:43:08;;;;;;;6.62;4.10;;;;;;;4.20;100.00;97764.66;1716300;83;21817;-68
2022/04/02 02:45:37;;;;;;;5.25;3.85;;;;;;;4.13;100.00;97745.05;1715756;82;21105;-69
2022/04/02 02:48:04;;;;;;;7.05;4.00;;;;;;;4.19;100.00;97746.05;1715853;82;21573;-67
2022/04/02 02:50:33;;;;;;;4.90;3.67;;;;;;;4.13;100.00;97741.14;1699790;82;21055;-68
2022/04/02 02:53:02;;;;;;;6.60;4.08;;;;;;;4.10;100.00;97728.27;1686982;85;21065;-69
2022/04/02 02:55:29;;;;;;;6.85;3.37;;;;;;;4.13;100.00;97721.59;1675096;85;21270;-68
2022/04/02 02:57:59;;;;;;;4.57;3.33;;;;;;;4.13;100.00;97735.92;1687227;85;21096;-68
2022/04/02 03:00:26;;;;;;;5.62;3.70;;;;;;;4.07;100.00;97742.30;1687007;85;21028;-69
2022/04/02 03:02:56;;;;;;;5.85;3.85;;;;;;;4.08;100.00;97741.83;1687083;84;21102;-69
2022/04/02 03:05:25;;;;;;;5.42;3.22;;;;;;;4.15;100.00;97738.00;1687081;84;21131;-69
2022/04/02 03:07:53;;;;;;;5.70;3.67;;;;;;;4.05;100.00;97739.35;1687164;84;21162;-69
2022/04/02 03:10:29;;;;;;;4.80;3.80;;;;;;;4.10;100.00;97749.11;1686938;84;21079;-68
2022/04/02 03:12:57;;;;;;;4.97;3.22;;;;;;;4.09;100.00;97750.84;1687263;83;21143;-67
2022/04/02 03:15:24;;;;;;;5.85;3.40;;;;;;;4.15;100.00;97739.30;1687256;85;21107;-68
2022/04/02 03:17:53;;;;;;;4.47;3.25;;;;;;;4.12;100.00;97735.55;1687353;85;21071;-68
2022/04/02 03:20:21;;;;;;;3.83;2.83;;;;;;;4.15;100.00;97739.30;1687223;85;21168;-69
2022/04/02 03:22:50;;;;;;;4.30;3.00;;;;;;;4.16;100.00;97730.55;1675041;85;21636;-69
2022/04/02 03:25:19;;;;;;;5.47;2.72;;;;;;;4.25;100.00;97722.28;1687122;85;21043;-68
2022/04/02 03:27:47;;;;;;;5.00;3.00;;;;;;;4.31;100.00;97729.80;1686990;85;21087;-68
2022/04/02 03:30:20;;;;;;;2.83;2.40;;;;;;;4.33;100.00;97729.27;1687072;84;21004;-68
2022/04/02 03:32:51;;;;;;;3.20;2.50;;;;;;;4.38;100.00;97725.97;1689796;84;21367;-68
2022/04/02 03:35:19;;;;;;;4.05;2.65;;;;;;;4.35;100.00;97731.81;1694736;84;21071;-68
2022/04/02 03:37:49;;;;;;;4.20;3.02;;;;;;;4.34;100.00;97732.25;1682586;85;21067;-68
2022/04/02 03:40:20;;;;;;;3.65;2.60;;;;;;;4.33;100.00;97735.78;1636951;87;21581;-69
2022/04/02 03:42:47;;;;;;;;;;;;;;;4.31;100.00;97716.77;1658220;86;21145;-68
2022/04/02 03:45:18;;;;;;;4.58;3.27;;;;;;;4.27;100.00;97709.19;1636994;87;21081;-69
2022/04/02 03:47:47;;;;;;;3.65;2.72;;;;;;;4.28;100.00;97720.84;1636596;87;21664;-68
2022/04/02 03:50:15;;;;;;;3.37;2.58;;;;;;;4.27;100.00;97724.82;1636544;87;21064;-68
2022/04/02 03:52:47;;;;;;;3.77;2.90;;;;;;;4.14;100.00;97719.36;1663353;86;21081;-69
2022/04/02 03:55:15;;;;;;;4.58;3.02;;;;;;;4.07;100.00;97719.28;1682522;85;21092;-68
2022/04/02 03:57:47;;;;;;;4.72;2.83;;;;;;;4.09;100.00;97721.36;1682540;85;20982;-68
2022/04/02 04:00:16;;;;;;;3.60;2.70;;;;;;;4.29;100.00;97697.77;1653449;86;21070;-69
2022/04/02 04:02:46;;;;;;;8.23;3.00;;;;;;;4.40;100.00;97698.07;1682481;85;21073;-68
2022/04/02 04:05:15;;;;;;;4.47;2.80;;;;;;;4.20;100.00;97700.37;1651705;86;21129;-69
2022/04/02 04:07:45;;;;;;;4.30;3.30;;;;;;;4.28;100.00;97688.28;1682451;85;21091;-69
2022/04/02 04:10:12;;;;;;;4.42;3.35;;;;;;;4.16;100.00;97675.42;1653429;86;21942;-68
2022/04/02 04:12:41;;;;;;;5.20;3.40;;;;;;;4.13;100.00;97683.83;1682356;85;21105;-69
2022/04/02 04:15:09;;;;;;;5.75;3.42;;;;;;;4.11;100.00;97676.55;1653225;86;21054;-69
2022/04/02 04:17:36;;;;;;;4.53;3.12;;;;;;;4.09;100.00;97679.69;1682540;85;21105;-68
2022/04/02 04:20:06;;;;;;;4.85;3.30;;;;;;;4.10;100.00;97690.50;1626730;86;21042;-69
2022/04/02 04:22:33;;;;;;;7.50;4.10;;;;;;;4.12;100.00;97683.46;1682498;85;21152;-69
2022/04/02 04:25:01;;;;;;;4.10;3.15;;;;;;;4.14;100.00;97688.11;1653016;86;21066;-68
2022/04/02 04:27:29;;;;;;;4.78;3.10;;;;;;;4.19;100.00;97685.67;1682402;85;21005;-69
2022/04/02 04:29:56;;;;;;;5.87;3.95;;;;;;;4.21;100.00;97693.42;1653189;86;21070;-68
2022/04/02 04:32:24;;;;;;;5.20;3.60;;;;;;;4.20;100.00;97691.72;1682833;84;21074;-68
2022/04/02 04:34:51;;;;;;;5.30;3.52;;;;;;;4.22;100.00;97684.67;1680022;85;21277;-69
2022/04/02 04:37:18;;;;;;;6.97;4.20;;;;;;;4.25;100.00;97681.06;1680177;85;21067;-68
2022/04/02 04:39:45;;;;;;;5.28;4.00;;;;;;;4.29;100.00;97676.92;1680173;85;21171;-68
2022/04/02 04:42:14;;;;;;;4.45;3.30;;;;;;;4.30;100.00;97672.11;1680375;85;21062;-68
2022/04/02 04:44:42;;;;;;;6.72;3.37;;;;;;;4.30;100.00;97662.99;1680320;85;21121;-69
2022/04/02 04:47:11;;;;;;;6.25;3.90;;;;;;;4.27;100.00;97648.80;1680453;85;21304;-69
2022/04/02 04:49:40;;;;;;;6.62;3.37;;;;;;;4.28;100.00;97660.05;1679252;85;21653;-68
2022/04/02 04:52:08;;;;;;;6.10;3.80;;;;;;;4.29;100.00;97664.36;1683377;85;21087;-69
2022/04/02 04:54:36;;;;;;;8.05;3.92;;;;;;;4.31;100.00;97670.34;1652720;85;21574;-69
2022/04/02 04:57:06;;;;;;;7.87;3.30;;;;;;;4.33;100.00;97671.95;1710479;83;21055;-68
2022/04/02 04:59:33;;;;;;;7.10;3.00;;;;;;;4.32;100.00;97676.75;1680137;85;21145;-70
2022/04/02 05:02:03;;;;;;;5.85;3.40;;;;;;;4.31;100.00;97672.95;1678695;85;21216;-68
2022/04/02 05:04:32;;;;;;;7.33;4.37;;;;;;;4.27;100.00;97674.85;1683516;85;21059;-69
2022/04/02 05:07:12;;;;;;;6.67;3.72;;;;;;;4.27;100.00;97674.85;1711090;83;21645;-70
2022/04/02 05:09:42;;;;;;;6.25;3.75;;;;;;;4.25;100.00;97664.97;1711213;83;21057;-69
2022/04/02 05:12:12;;;;;;;6.35;3.60;;;;;;;4.25;100.00;97668.87;1711068;83;21102;-70
2022/04/02 05:14:42;;;;;;;9.45;4.50;;;;;;;4.27;100.00;97672.25;1711212;83;21215;-69
2022/04/02 05:17:09;;;;;;;6.28;4.10;;;;;;;4.28;100.00;97675.25;1711018;83;21599;-68
2022/04/02 05:19:38;;;;;;;6.47;4.00;;;;;;;4.33;100.00;97674.55;1711157;83;21043;-69
2022/04/02 05:22:10;;;;;;;15.53;4.53;;;;;;;4.33;100.00;97675.85;1711061;83;21112;-69
2022/04/02 05:24:38;;;;;;;8.38;3.77;;;;;;;4.31;100.00;97675.09;1710504;83;21235;-69
2022/04/02 05:27:06;;;;;;;6.58;4.05;;;;;;;4.24;100.00;97676.32;1710755;82;21221;-69
2022/04/02 05:29:32;;;;;;;6.47;3.60;;;;;;;4.27;100.00;97674.85;1711024;82;21022;-69
2022/04/02 05:32:03;;;;;;;7.60;3.80;;;;;;;4.36;100.00;97675.69;1710858;83;21098;-68
2022/04/02 05:34:30;;;;;;;10.63;4.40;;;;;;;4.25;100.00;97674.08;1706552;83;21543;-68
2022/04/02 05:36:59;;;;;;;15.03;4.65;;;;;;;4.15;100.00;97680.22;1715972;83;21857;-69
2022/04/02 05:39:27;;;;;;;8.18;4.92;;;;;;;4.11;100.00;97681.76;1715833;83;21030;-69
2022/04/02 05:41:53;;;;;;;10.93;4.70;;;;;;;4.09;100.00;97675.78;1715927;83;21527;-68
2022/04/02 05:44:20;;;;;;;11.73;5.58;;;;;;;4.12;100.00;97676.95;1716097;83;21121;-68
2022/04/02 05:46:50;;;;;;;13.45;6.12;;;;;;;4.11;100.00;97676.08;1715730;83;21554;-67
2022/04/02 05:49:17;;;;;;;12.63;5.47;;;;;;;4.07;100.00;97667.20;1716028;83;21055;-68
2022/04/02 05:51:44;;;;;;;13.22;5.40;;;;;;;4.05;100.00;97661.22;1715735;83;21082;-69
2022/04/02 05:54:11;;;;;;;12.63;5.03;;;;;;;4.03;100.00;97663.08;1715829;83;21107;-69
2022/04/02 05:56:38;;;;;;;14.38;6.20;;;;;;;4.01;100.00;97659.71;1715793;83;21062;-68
2022/04/02 05:59:05;;;;;;;12.20;5.12;;;;;;;4.00;100.00;97664.05;1715955;83;21108;-69
2022/04/02 06:01:35;;;;;;;10.70;5.17;;;;;;;3.99;100.00;97660.61;1715838;83;21136;-69
2022/04/02 06:04:02;;;;;;;14.33;5.60;;;;;;;4.03;100.00;97652.67;1715766;83;21058;-69
2022/04/02 06:06:34;;;;;;;10.05;4.42;;;;;;;4.06;100.00;97662.92;1715974;83;21114;-69
2022/04/02 06:09:00;;;;;;;9.50;4.62;;;;;;;4.07;100.00;97671.97;1715851;83;21019;-68
2022/04/02 06:11:26;;;;;;;11.18;5.33;;;;;;;4.10;100.00;97665.77;1715860;83;21105;-68
2022/04/02 06:13:53;;;;;;;13.38;4.62;;;;;;;4.11;100.00;97660.92;1715929;83;21140;-69
2022/04/02 06:16:21;;;;;;;6.58;3.37;;;;;;;4.11;100.00;97663.52;1716214;83;21058;-69
2022/04/02 06:18:48;;;;;;;8.23;4.55;;;;;;;4.13;100.00;97665.59;1715989;83;21093;-69
2022/04/02 06:21:16;;;;;;;10.70;4.78;;;;;;;4.20;100.00;97665.66;1715881;83;21042;-70
2022/04/02 06:23:44;;;;;;;12.20;4.75;;;;;;;4.22;100.00;97658.62;1715779;83;21034;-68
2022/04/02 06:26:10;;;;;;;10.63;5.08;;;;;;;4.24;100.00;97661.99;1715682;83;21138;-69
2022/04/02 06:28:37;;;;;;;10.90;5.40;;;;;;;4.24;100.00;97656.78;1715783;82;21049;-69
2022/04/02 06:31:04;;;;;;;12.53;4.35;;;;;;;4.27;100.00;97654.01;1715862;83;21050;-71
2022/04/02 06:33:33;;;;;;;9.30;4.50;;;;;;;4.28;100.00;97651.80;1724579;82;21097;-70
2022/04/02 06:36:01;;;;;;;11.05;4.22;;;;;;;4.31;100.00;97652.10;1749687;81;21091;-69
2022/04/02 06:38:27;;;;;;;8.45;4.67;;;;;;;4.32;100.00;97648.09;1749669;82;21136;-69
2022/04/02 06:40:55;;;;;;;9.93;4.75;;;;;;;4.32;100.00;97643.35;1749619;81;21105;-68
2022/04/02 06:43:21;;;;;;;8.53;3.95;;;;;;;4.29;100.00;97641.75;1749808;81;21066;-69
2022/04/02 06:45:56;;;;;;;11.05;4.62;;;;;;;4.29;100.00;97650.87;1749418;82;21019;-69
2022/04/02 06:48:23;;;;;;;9.05;4.92;;;;;;;4.33;100.00;97661.99;1749808;82;21100;-69
2022/04/02 06:50:53;;;;;;;11.25;4.37;;;;;;;4.35;100.00;97665.36;1749674;81;21870;-68
2022/04/02 06:53:20;;;;;;;8.83;4.30;;;;;;;4.36;100.00;97658.75;1749702;82;21727;-69
2022/04/02 06:55:47;;;;;;;9.25;4.47;;;;;;;4.36;100.00;97650.09;1749660;81;21090;-68
2022/04/02 06:58:28;;;;;;;8.90;3.47;;;;;;;4.38;100.00;97663.42;1749641;82;21124;-69
2022/04/02 07:00:54;;;;;;;8.60;4.00;;;;;;;4.39;100.00;97671.64;1749961;81;21077;-70
2022/04/02 07:03:22;;;;;;;11.35;4.70;;;;;;;4.39;100.00;97669.04;1749482;82;21510;-70
2022/04/02 07:05:50;;;;;;;11.65;4.87;;;;;;;4.41;100.00;97672.84;1749647;81;21102;-68
2022/04/02 07:08:18;;;;;;;10.95;4.70;;;;;;;4.42;100.00;97671.94;1750000;81;20994;-70
2022/04/02 07:10:45;;;;;;;10.58;4.90;;;;;;;4.42;100.00;97673.25;1749781;81;21065;-70
2022/04/02 07:13:12;;;;;;;10.58;5.05;;;;;;;4.44;100.00;97674.02;1750045;81;21104;-70
2022/04/02 07:15:40;;;;;;;8.65;4.70;;;;;;;4.45;100.00;97664.42;1749809;82;21077;-69
2022/04/02 07:18:09;;;;;;;7.08;3.92;;;;;;;4.46;100.00;97670.84;1749890;82;21076;-69
2022/04/02 07:20:40;;;;;;;10.30;4.50;;;;;;;4.44;100.00;97677.92;1749921;82;20998;-68
2022/04/02 07:23:09;;;;;;;7.30;4.50;;;;;;;4.48;100.00;97681.20;1749751;82;21057;-68
2022/04/02 07:25:40;;;;;;;8.50;3.87;;;;;;;4.47;100.00;97680.83;1749763;82;21042;-69
2022/04/02 07:28:08;;;;;;;9.83;4.15;;;;;;;4.50;100.00;97679.36;1749639;80;21143;-69
2022/04/02 07:30:37;;;;;;;11.85;4.55;;;;;;;4.50;100.00;97679.36;1749776;82;21127;-69
2022/04/02 07:33:05;;;;;;;10.98;4.28;;;;;;;4.48;100.00;97676.81;1749668;81;21056;-69
2022/04/02 07:35:43;;;;;;;6.67;4.05;;;;;;;4.48;100.00;97674.68;1718527;82;21058;-70
2022/04/02 07:38:14;;;;;;;7.25;3.47;;;;;;;4.44;100.00;97673.14;1709705;83;21062;-69
2022/04/02 07:41:01;;;;;;;11.43;4.12;;;;;;;4.44;100.00;97673.14;1715960;81;21495;-69
2022/04/02 07:43:41;;;;;;;6.75;3.65;;;;;;;4.47;100.00;97680.83;1715892;83;21042;-69
2022/04/02 07:46:16;;;;;;;10.85;4.53;;;;;;;4.52;100.00;97682.73;1715802;82;21567;-68
2022/04/02 07:48:46;;;;;;;12.30;4.97;;;;;;;4.50;100.00;97678.05;1715851;83;21069;-68
2022/04/02 07:51:14;;;;;;;8.13;4.53;;;;;;;4.46;100.00;97686.48;1692715;83;21081;-69
2022/04/02 07:53:50;;;;;;;9.33;4.62;;;;;;;4.40;100.00;97691.55;1686949;85;21133;-69
2022/04/02 07:56:24;;;;;;;9.50;4.40;;;;;;;4.37;100.00;97690.86;1686660;84;21094;-71
2022/04/02 07:58:53;;;;;;;9.65;3.85;;;;;;;4.32;100.00;97691.09;1675486;85;21139;-69
2022/04/02 08:01:19;;;;;;;8.78;3.72;;;;;;;4.28;100.00;97692.19;1687329;85;21085;-69
2022/04/02 08:03:47;;;;;;;6.37;3.33;;;;;;;4.30;100.00;97691.66;1687022;84;21097;-68
2022/04/02 08:06:15;;;;;;;6.85;3.75;;;;;;;4.35;100.00;97688.34;1687344;84;21190;-69
2022/04/02 08:08:44;;;;;;;8.35;4.05;;;;;;;4.38;100.00;97682.13;1686885;85;21014;-70
2022/04/02 08:11:13;;;;;;;8.18;3.67;;;;;;;4.39;100.00;97683.80;1652858;85;21120;-68
2022/04/02 08:13:44;;;;;;;11.50;3.75;;;;;;;4.41;100.00;97698.44;1686989;84;21046;-69
2022/04/02 08:16:11;;;;;;;10.40;4.05;;;;;;;4.43;100.00;97694.93;1687222;84;21069;-69
2022/04/02 08:18:40;;;;;;;7.33;3.20;;;;;;;4.47;100.00;97699.07;1687058;85;21054;-68
2022/04/02 08:21:08;;;;;;;9.20;2.92;;;;;;;4.48;100.00;97696.83;1687176;84;21616;-70
2022/04/02 08:23:36;;;;;;;8.95;3.58;;;;;;;4.49;100.00;97688.11;1686917;85;21019;-70
2022/04/02 08:26:33;;;;;;;11.55;3.10;;;;;;;4.49;100.00;97686.80;1686987;84;21057;-70
2022/04/02 08:29:34;;;;;;;4.70;2.50;;;;;;;4.50;100.00;97688.48;1686981;85;21070;-69
2022/04/02 08:32:16;;;;;;;5.42;2.95;;;;;;;4.47;100.00;97683.44;1686987;85;21158;-69
2022/04/02 08:35:07;;;;;;;6.10;2.50;;;;;;;4.46;100.00;97676.52;1687104;83;21046;-68
2022/04/02 08:37:47;;;;;;;6.67;2.58;;;;;;;4.46;100.00;97675.22;1687224;85;25563;-70
2022/04/02 08:41:04;;;;;;;4.08;2.35;;;;;;;4.46;100.00;97668.70;1687156;85;21038;-69
2022/04/02 08:44:08;;;;;;;3.25;2.05;;;;;;;4.50;100.00;97675.45;1687199;85;21038;-69
2022/04/02 08:46:37;;;;;;;8.10;2.27;;;;;;;4.49;100.00;97666.80;1687131;84;21564;-71
2022/04/02 08:49:34;;;;;;;6.05;2.00;;;;;;;4.53;100.00;97675.28;1686980;84;26346;-69
2022/04/02 08:52:18;;;;;;;7.87;2.35;;;;;;;4.53;100.00;97675.28;1686939;84;21129;-69
2022/04/02 08:55:15;;;;;;;4.10;2.20;;;;;;;4.59;100.00;97688.00;1687101;84;21097;-69
2022/04/02 08:58:00;;;;;;;7.80;2.55;;;;;;;4.61;100.00;97691.37;1687160;84;21590;-68
2022/04/02 09:00:27;;;;;;;4.65;2.47;;;;;;;4.64;100.00;97693.81;1686746;84;21368;-69
2022/04/02 09:03:17;;;;;;;6.35;2.55;;;;;;;4.63;100.00;97697.36;1687106;85;21042;-69
2022/04/02 09:06:31;;;;;;;9.08;2.92;;;;;;;4.62;100.00;97696.52;1679350;85;21042;-68
2022/04/02 09:09:24;;;;;;;8.23;2.90;;;;;;;4.59;100.00;97701.88;1687207;85;21022;-69
2022/04/02 09:12:18;;;;;;;4.97;2.33;;;;;;;4.59;100.00;97712.30;1687502;84;21116;-69
2022/04/02 09:15:10;;;;;;;4.90;2.52;;;;;;;4.62;100.00;97700.87;1686704;84;21033;-69
2022/04/02 09:18:00;;;;;;;5.55;2.85;;;;;;;4.63;100.00;97701.27;1687383;85;21027;-69
2022/04/02 09:20:56;;;;;;;6.60;2.90;;;;;;;4.68;100.00;97704.47;1687441;85;21595;-69
2022/04/02 09:23:46;;;;;;;7.80;3.30;;;;;;;4.71;100.00;97708.22;1687015;83;21058;-69
2022/04/02 09:26:45;;;;;;;8.65;3.92;;;;;;;4.76;100.00;97707.53;1686810;83;21237;-69
2022/04/02 09:29:31;;;;;;;12.23;3.52;;;;;;;4.79;100.00;97709.98;1687241;85;21283;-68
2022/04/02 09:32:27;;;;;;;6.00;3.27;;;;;;;4.77;100.00;97710.52;1709588;83;21129;-69
2022/04/02 09:35:49;;;;;;;10.23;3.92;;;;;;;4.77;100.00;97714.42;1728318;82;21053;-69
2022/04/02 09:38:45;;;;;;;10.48;4.53;;;;;;;4.75;100.00;97711.52;1672508;85;21071;-70
2022/04/02 09:41:23;;;;;;;10.55;3.50;;;;;;;4.76;100.00;97712.75;1714262;83;21062;-68
2022/04/02 09:44:14;;;;;;;11.57;3.77;;;;;;;4.74;100.00;97715.90;1714272;83;21136;-68
2022/04/02 09:47:06;;;;;;;8.08;3.60;;;;;;;4.71;100.00;97718.64;1714080;83;21563;-69
2022/04/02 09:49:47;;;;;;;9.58;2.98;;;;;;;4.68;100.00;97719.28;1656217;85;21045;-69
2022/04/02 09:52:18;;;;;;;6.25;3.25;;;;;;;4.66;100.00;97721.12;1666395;86;21589;-70
2022/04/02 09:55:05;;;;;;;9.70;3.58;;;;;;;4.63;100.00;97718.21;1665944;86;21135;-68
2022/04/02 09:58:23;;;;;;;6.50;3.00;;;;;;;4.60;100.00;97715.74;1666037;86;22176;-70
2022/04/02 10:01:11;;;;;;;9.03;3.85;;;;;;;4.61;100.00;97714.84;1666005;86;21034;-69
2022/04/02 10:04:00;;;;;;;9.20;3.30;;;;;;;4.60;100.00;97715.74;1665968;86;21455;-68
2022/04/02 10:06:41;;;;;;;7.78;3.77;;;;;;;4.55;100.00;97718.58;1666417;86;22146;-68
2022/04/02 10:09:18;;;;;;;11.00;3.95;;;;;;;4.54;100.00;97713.47;1666011;86;21113;-70
2022/04/02 10:11:55;;;;;;;6.90;3.20;;;;;;;4.52;100.00;97719.22;1666086;86;21042;-68
2022/04/02 10:14:23;;;;;;;8.10;3.30;;;;;;;4.51;100.00;97731.41;1666048;86;21057;-69
2022/04/02 10:16:55;;;;;;;7.00;2.72;;;;;;;4.52;100.00;97728.34;1666154;86;21049;-69
2022/04/02 10:19:29;;;;;;;;;;;;;;;4.55;100.00;97736.83;1668560;86;21045;-69
2022/04/02 10:22:03;;;;;;;5.50;2.30;;;;;;;4.57;100.00;97738.06;1666179;86;20296;-72
2022/04/02 10:24:44;;;;;;;5.85;2.05;;;;;;;4.56;100.00;97740.30;1665256;86;21187;-70
2022/04/02 10:27:12;;;;;;;3.45;2.15;;;;;;;4.58;100.00;97752.80;1665744;86;21061;-69
2022/04/02 10:30:01;;;;;;;6.40;2.15;;;;;;;4.64;100.00;97753.77;1666025;86;21584;-70
2022/04/02 10:35:51;;;;;;;5.33;1.90;;;;;;;4.71;100.00;97751.23;1659914;86;21573;-69
2022/04/02 10:38:38;;;;;;;4.10;1.60;;;;;;;4.75;100.00;97755.38;1687400;84;21135;-69
2022/04/02 10:41:18;;;;;;;2.45;1.35;;;;;;;4.81;100.00;97759.45;1686806;84;21031;-69
2022/04/02 10:44:06;;;;;;;3.05;1.52;;;;;;;4.87;100.00;97759.58;1687438;85;21578;-69
2022/04/02 10:46:32;;;;;;;2.95;1.40;;;;;;;4.90;100.00;97764.62;1687111;84;21048;-69
2022/04/02 10:49:08;;;;;;;1.87;1.10;;;;;;;4.90;100.00;97764.62;1687065;84;21137;-70
2022/04/02 10:51:34;;;;;;;3.75;1.85;;;;;;;4.91;100.00;97774.99;1686336;84;21174;-70
2022/04/02 10:54:10;;;;;;;4.22;1.57;;;;;;;4.94;100.00;97766.16;1686977;85;21066;-70
2022/04/02 10:56:44;;;;;;;2.60;1.20;;;;;;;4.96;100.00;97775.59;1687070;83;21051;-70
2022/04/02 10:59:13;;;;;;;2.00;1.20;;;;;;;5.00;100.00;97778.89;1686908;84;21370;-68
2022/04/02 11:01:44;;;;;;;2.65;1.20;;;;;;;4.96;100.00;97777.36;1687217;85;21014;-70
2022/04/02 11:04:37;;;;;;;1.70;1.10;;;;;;;4.86;100.00;97776.16;1687038;85;21835;-70
2022/04/02 11:07:04;;;;;;;3.47;1.40;;;;;;;4.81;100.00;97779.84;1686681;84;21528;-69
2022/04/02 11:09:41;;;;;;;3.12;1.77;;;;;;;4.81;100.00;97781.15;1674950;85;21109;-69
2022/04/02 11:12:14;;;;;;;1.72;1.45;;;;;;;4.78;100.00;97787.80;1687332;83;21101;-70
2022/04/02 11:14:49;;;;;;;3.80;1.60;;;;;;;4.74;100.00;97789.34;1687110;84;21073;-69
2022/04/02 11:17:37;;;;;;;3.05;1.67;;;;;;;4.73;100.00;97779.38;1687293;85;21252;-69
2022/04/02 11:20:11;;;;;;;3.15;2.00;;;;;;;4.68;100.00;97797.03;1687081;85;21264;-70
2022/04/02 11:22:57;;;;;;;1.98;1.47;;;;;;;4.65;100.00;97793.28;1687009;85;21097;-70
2022/04/02 11:25:39;;;;;;;2.65;1.82;;;;;;;4.62;100.00;97789.50;1686963;85;21565;-68
2022/04/02 11:28:15;;;;;;;3.22;1.98;;;;;;;4.60;100.00;97788.73;1686171;84;21070;-70
2022/04/02 11:30:46;;;;;;;3.15;2.17;;;;;;;4.58;100.00;97790.60;1687388;84;21127;-69
2022/04/02 11:33:18;;;;;;;4.97;1.90;;;;;;;4.59;100.00;97798.80;1686973;85;21053;-69
2022/04/02 11:35:57;;;;;;;2.67;1.75;;;;;;;4.61;100.00;97787.83;1701662;83;21068;-68
2022/04/02 11:38:38;;;;;;;1.80;1.40;;;;;;;4.64;100.00;97787.66;1720054;83;21058;-68
2022/04/02 11:41:37;;;;;;;2.90;1.50;;;;;;;4.65;100.00;97786.77;1719912;83;21066;-69
2022/04/02 11:44:14;;;;;;;2.37;1.25;;;;;;;4.70;100.00;97780.02;1719803;83;21892;-70
2022/04/02 11:46:57;;;;;;;2.12;1.32;;;;;;;4.78;100.00;97774.77;1719846;83;21069;-69
2022/04/02 11:49:36;;;;;;;3.27;1.50;;;;;;;4.85;100.00;97772.69;1719429;83;21089;-68
2022/04/02 11:52:12;;;;;;;2.55;1.55;;;;;;;4.90;100.00;97772.45;1719791;83;21034;-70
2022/04/02 11:54:50;;;;;;;2.77;1.32;;;;;;;4.92;100.00;97781.05;1719741;83;21147;-70
2022/04/02 11:57:18;;;;;;;2.02;1.57;;;;;;;5.00;100.00;97786.72;1719671;83;21159;-71
2022/04/02 11:59:57;;;;;;;1.85;1.45;;;;;;;5.05;100.00;97789.92;1719940;83;21784;-70
2022/04/02 12:02:42;;;;;;;2.15;1.50;;;;;;;5.04;100.00;97790.39;1719821;83;21089;-70
2022/04/02 12:05:11;;;;;;;3.10;1.82;;;;;;;5.06;100.00;97787.69;1720013;83;21023;-70
2022/04/02 12:07:48;;;;;;;2.92;1.70;;;;;;;5.09;100.00;97792.77;1719945;83;21549;-71